sensor_id;sensor_type;location;lat;lon;timestamp;P1;durP1;ratioP1;P2;durP2;ratioP2
49514;SDS011;35415;47.870;16.058;2023-02-12T00:00:28;14.40;;;7.78;;
49514;SDS011;35415;47.870;16.058;2023-02-12T00:03:22;15.15;;;8.15;;
49514;SDS011;35415;47.870;16.058;2023-02-12T00:06:16;12.13;;;7.38;;
49514;SDS011;35415;47.870;16.058;2023-02-12T00:09:11;13.30;;;7.70;;
49514;SDS011;35415;47.870;16.058;2023-02-12T00:12:05;12.80;;;7.65;;
49514;SDS011;35415;47.870;16.058;2023-02-12T00:15:00;13.20;;;7.80;;
49514;SDS011;35415;47.870;16.058;2023-02-12T00:17:54;12.05;;;7.25;;
49514;SDS011;35415;47.870;16.058;2023-02-12T00:20:48;14.15;;;7.40;;
49514;SDS011;35415;47.870;16.058;2023-02-12T00:23:48;14.25;;;7.35;;
49514;SDS011;35415;47.870;16.058;2023-02-12T00:26:43;14.10;;;7.18;;
49514;SDS011;35415;47.870;16.058;2023-02-12T00:29:39;12.18;;;6.93;;
49514;SDS011;35415;47.870;16.058;2023-02-12T00:32:33;15.02;;;7.30;;
49514;SDS011;35415;47.870;16.058;2023-02-12T00:35:28;10.90;;;6.38;;
49514;SDS011;35415;47.870;16.058;2023-02-12T00:38:22;16.05;;;7.72;;
49514;SDS011;35415;47.870;16.058;2023-02-12T00:41:16;12.20;;;6.75;;
49514;SDS011;35415;47.870;16.058;2023-02-12T00:44:11;13.25;;;6.85;;
49514;SDS011;35415;47.870;16.058;2023-02-12T00:47:05;11.75;;;6.95;;
49514;SDS011;35415;47.870;16.058;2023-02-12T00:49:59;12.27;;;6.00;;
49514;SDS011;35415;47.870;16.058;2023-02-12T00:52:53;13.38;;;7.22;;
49514;SDS011;35415;47.870;16.058;2023-02-12T00:55:47;14.40;;;6.88;;
49514;SDS011;35415;47.870;16.058;2023-02-12T00:58:41;14.40;;;7.03;;
49514;SDS011;35415;47.870;16.058;2023-02-12T01:01:36;11.45;;;6.80;;
49514;SDS011;35415;47.870;16.058;2023-02-12T01:04:30;15.15;;;7.28;;
49514;SDS011;35415;47.870;16.058;2023-02-12T01:07:24;13.18;;;6.57;;
49514;SDS011;35415;47.870;16.058;2023-02-12T01:10:18;13.18;;;6.50;;
49514;SDS011;35415;47.870;16.058;2023-02-12T01:13:13;12.30;;;7.18;;
49514;SDS011;35415;47.870;16.058;2023-02-12T01:16:10;11.88;;;6.55;;
49514;SDS011;35415;47.870;16.058;2023-02-12T01:19:09;11.18;;;6.32;;
49514;SDS011;35415;47.870;16.058;2023-02-12T01:22:04;12.05;;;6.65;;
49514;SDS011;35415;47.870;16.058;2023-02-12T01:24:58;11.93;;;6.45;;
49514;SDS011;35415;47.870;16.058;2023-02-12T01:27:52;9.85;;;6.00;;
49514;SDS011;35415;47.870;16.058;2023-02-12T01:30:46;9.68;;;5.80;;
49514;SDS011;35415;47.870;16.058;2023-02-12T01:33:40;10.73;;;6.18;;
49514;SDS011;35415;47.870;16.058;2023-02-12T01:36:36;11.38;;;6.30;;
49514;SDS011;35415;47.870;16.058;2023-02-12T01:39:30;11.30;;;6.28;;
49514;SDS011;35415;47.870;16.058;2023-02-12T01:42:24;10.27;;;5.78;;
49514;SDS011;35415;47.870;16.058;2023-02-12T01:48:44;8.77;;;5.38;;
49514;SDS011;35415;47.870;16.058;2023-02-12T01:51:42;8.98;;;5.55;;
49514;SDS011;35415;47.870;16.058;2023-02-12T01:54:38;10.68;;;5.95;;
49514;SDS011;35415;47.870;16.058;2023-02-12T01:57:33;10.95;;;5.78;;
49514;SDS011;35415;47.870;16.058;2023-02-12T02:00:31;9.25;;;5.13;;
49514;SDS011;35415;47.870;16.058;2023-02-12T02:03:26;9.77;;;5.63;;
49514;SDS011;35415;47.870;16.058;2023-02-12T02:06:21;15.32;;;6.68;;
49514;SDS011;35415;47.870;16.058;2023-02-12T02:09:19;10.68;;;5.57;;
49514;SDS011;35415;47.870;16.058;2023-02-12T02:12:14;9.20;;;5.30;;
49514;SDS011;35415;47.870;16.058;2023-02-12T02:15:25;8.18;;;5.30;;
49514;SDS011;35415;47.870;16.058;2023-02-12T02:18:22;8.50;;;5.20;;
49514;SDS011;35415;47.870;16.058;2023-02-12T02:24:53;9.50;;;5.70;;
49514;SDS011;35415;47.870;16.058;2023-02-12T02:28:24;7.93;;;5.05;;
49514;SDS011;35415;47.870;16.058;2023-02-12T02:31:41;21.23;;;8.88;;
49514;SDS011;35415;47.870;16.058;2023-02-12T02:34:38;11.10;;;5.93;;
49514;SDS011;35415;47.870;16.058;2023-02-12T02:37:38;13.48;;;6.47;;
49514;SDS011;35415;47.870;16.058;2023-02-12T02:40:38;12.32;;;6.60;;
49514;SDS011;35415;47.870;16.058;2023-02-12T02:43:39;12.68;;;6.30;;
49514;SDS011;35415;47.870;16.058;2023-02-12T02:46:38;7.28;;;4.63;;
49514;SDS011;35415;47.870;16.058;2023-02-12T02:49:38;9.07;;;4.65;;
49514;SDS011;35415;47.870;16.058;2023-02-12T02:52:40;9.88;;;4.97;;
49514;SDS011;35415;47.870;16.058;2023-02-12T02:55:39;15.50;;;6.55;;
49514;SDS011;35415;47.870;16.058;2023-02-12T02:58:38;9.15;;;5.43;;
49514;SDS011;35415;47.870;16.058;2023-02-12T03:01:35;8.30;;;5.00;;
49514;SDS011;35415;47.870;16.058;2023-02-12T03:04:35;8.95;;;5.05;;
49514;SDS011;35415;47.870;16.058;2023-02-12T03:07:34;8.02;;;5.25;;
49514;SDS011;35415;47.870;16.058;2023-02-12T03:10:33;11.73;;;5.43;;
49514;SDS011;35415;47.870;16.058;2023-02-12T03:13:33;11.35;;;6.13;;
49514;SDS011;35415;47.870;16.058;2023-02-12T03:16:32;8.88;;;5.00;;
49514;SDS011;35415;47.870;16.058;2023-02-12T03:19:30;9.52;;;5.38;;
49514;SDS011;35415;47.870;16.058;2023-02-12T03:22:30;9.13;;;5.13;;
49514;SDS011;35415;47.870;16.058;2023-02-12T03:25:34;9.07;;;5.65;;
49514;SDS011;35415;47.870;16.058;2023-02-12T03:28:33;9.85;;;4.80;;
49514;SDS011;35415;47.870;16.058;2023-02-12T03:31:30;8.82;;;4.82;;
49514;SDS011;35415;47.870;16.058;2023-02-12T03:34:33;9.00;;;4.93;;
49514;SDS011;35415;47.870;16.058;2023-02-12T03:37:40;9.15;;;5.05;;
49514;SDS011;35415;47.870;16.058;2023-02-12T03:40:45;7.50;;;4.82;;
49514;SDS011;35415;47.870;16.058;2023-02-12T03:43:47;9.70;;;4.53;;
49514;SDS011;35415;47.870;16.058;2023-02-12T03:46:47;8.23;;;4.57;;
49514;SDS011;35415;47.870;16.058;2023-02-12T03:49:53;11.02;;;5.35;;
49514;SDS011;35415;47.870;16.058;2023-02-12T03:52:54;7.20;;;4.53;;
49514;SDS011;35415;47.870;16.058;2023-02-12T03:55:49;8.75;;;4.63;;
49514;SDS011;35415;47.870;16.058;2023-02-12T03:58:46;7.78;;;4.88;;
49514;SDS011;35415;47.870;16.058;2023-02-12T04:01:40;9.80;;;4.78;;
49514;SDS011;35415;47.870;16.058;2023-02-12T04:04:35;7.35;;;4.35;;
49514;SDS011;35415;47.870;16.058;2023-02-12T04:07:29;8.25;;;4.25;;
49514;SDS011;35415;47.870;16.058;2023-02-12T04:10:26;7.00;;;4.60;;
49514;SDS011;35415;47.870;16.058;2023-02-12T04:13:25;6.40;;;4.05;;
49514;SDS011;35415;47.870;16.058;2023-02-12T04:16:27;6.65;;;3.92;;
49514;SDS011;35415;47.870;16.058;2023-02-12T04:19:26;5.65;;;3.83;;
49514;SDS011;35415;47.870;16.058;2023-02-12T04:22:30;6.88;;;3.33;;
49514;SDS011;35415;47.870;16.058;2023-02-12T04:25:38;5.28;;;3.05;;
49514;SDS011;35415;47.870;16.058;2023-02-12T04:28:46;4.38;;;2.42;;
49514;SDS011;35415;47.870;16.058;2023-02-12T04:31:51;4.78;;;2.60;;
49514;SDS011;35415;47.870;16.058;2023-02-12T04:34:51;5.88;;;3.10;;
49514;SDS011;35415;47.870;16.058;2023-02-12T04:37:53;4.60;;;2.63;;
49514;SDS011;35415;47.870;16.058;2023-02-12T04:40:53;5.72;;;2.90;;
49514;SDS011;35415;47.870;16.058;2023-02-12T04:43:48;3.28;;;2.10;;
49514;SDS011;35415;47.870;16.058;2023-02-12T04:46:42;4.00;;;2.70;;
49514;SDS011;35415;47.870;16.058;2023-02-12T04:49:36;3.60;;;2.38;;
49514;SDS011;35415;47.870;16.058;2023-02-12T04:52:30;4.35;;;2.75;;
49514;SDS011;35415;47.870;16.058;2023-02-12T04:55:24;3.45;;;2.53;;
49514;SDS011;35415;47.870;16.058;2023-02-12T04:58:19;4.22;;;2.70;;
49514;SDS011;35415;47.870;16.058;2023-02-12T05:01:14;4.47;;;2.40;;
49514;SDS011;35415;47.870;16.058;2023-02-12T05:04:10;3.30;;;2.40;;
49514;SDS011;35415;47.870;16.058;2023-02-12T05:07:05;4.15;;;2.67;;
49514;SDS011;35415;47.870;16.058;2023-02-12T05:09:59;3.80;;;2.10;;
49514;SDS011;35415;47.870;16.058;2023-02-12T05:12:53;3.05;;;2.13;;
49514;SDS011;35415;47.870;16.058;2023-02-12T05:15:49;3.80;;;2.47;;
49514;SDS011;35415;47.870;16.058;2023-02-12T05:18:43;2.65;;;1.90;;
49514;SDS011;35415;47.870;16.058;2023-02-12T05:21:37;3.42;;;2.40;;
49514;SDS011;35415;47.870;16.058;2023-02-12T05:24:37;3.83;;;2.10;;
49514;SDS011;35415;47.870;16.058;2023-02-12T05:27:31;3.55;;;2.30;;
49514;SDS011;35415;47.870;16.058;2023-02-12T05:30:25;4.10;;;2.50;;
49514;SDS011;35415;47.870;16.058;2023-02-12T05:33:20;4.10;;;2.33;;
49514;SDS011;35415;47.870;16.058;2023-02-12T05:36:15;2.97;;;2.20;;
49514;SDS011;35415;47.870;16.058;2023-02-12T05:39:10;3.38;;;2.20;;
49514;SDS011;35415;47.870;16.058;2023-02-12T05:42:04;3.17;;;2.20;;
49514;SDS011;35415;47.870;16.058;2023-02-12T05:44:58;2.80;;;2.20;;
49514;SDS011;35415;47.870;16.058;2023-02-12T05:47:52;3.65;;;2.42;;
49514;SDS011;35415;47.870;16.058;2023-02-12T05:50:47;4.22;;;2.40;;
49514;SDS011;35415;47.870;16.058;2023-02-12T05:53:41;3.25;;;2.20;;
49514;SDS011;35415;47.870;16.058;2023-02-12T05:56:35;4.38;;;2.63;;
49514;SDS011;35415;47.870;16.058;2023-02-12T05:59:34;4.05;;;2.90;;
49514;SDS011;35415;47.870;16.058;2023-02-12T06:02:28;4.82;;;2.92;;
49514;SDS011;35415;47.870;16.058;2023-02-12T06:05:22;4.88;;;3.15;;
49514;SDS011;35415;47.870;16.058;2023-02-12T06:07:57;4.88;;;3.00;;
49514;SDS011;35415;47.870;16.058;2023-02-12T06:10:24;4.15;;;2.83;;
49514;SDS011;35415;47.870;16.058;2023-02-12T06:12:52;5.63;;;2.97;;
49514;SDS011;35415;47.870;16.058;2023-02-12T06:15:20;3.85;;;2.65;;
49514;SDS011;35415;47.870;16.058;2023-02-12T06:17:47;4.25;;;2.90;;
49514;SDS011;35415;47.870;16.058;2023-02-12T06:20:14;3.65;;;2.55;;
49514;SDS011;35415;47.870;16.058;2023-02-12T06:22:41;4.30;;;2.85;;
49514;SDS011;35415;47.870;16.058;2023-02-12T06:25:10;4.93;;;3.30;;
49514;SDS011;35415;47.870;16.058;2023-02-12T06:27:36;4.68;;;2.85;;
49514;SDS011;35415;47.870;16.058;2023-02-12T06:30:04;4.53;;;3.13;;
49514;SDS011;35415;47.870;16.058;2023-02-12T06:32:32;5.53;;;3.58;;
49514;SDS011;35415;47.870;16.058;2023-02-12T06:35:00;9.60;;;3.05;;
49514;SDS011;35415;47.870;16.058;2023-02-12T06:37:27;8.65;;;3.72;;
49514;SDS011;35415;47.870;16.058;2023-02-12T06:39:54;4.25;;;2.83;;
49514;SDS011;35415;47.870;16.058;2023-02-12T06:42:22;3.97;;;3.03;;
49514;SDS011;35415;47.870;16.058;2023-02-12T06:44:50;3.45;;;2.40;;
49514;SDS011;35415;47.870;16.058;2023-02-12T06:47:17;4.00;;;2.70;;
49514;SDS011;35415;47.870;16.058;2023-02-12T06:49:43;4.00;;;3.00;;
49514;SDS011;35415;47.870;16.058;2023-02-12T06:52:10;3.85;;;2.92;;
49514;SDS011;35415;47.870;16.058;2023-02-12T06:54:38;5.25;;;3.08;;
49514;SDS011;35415;47.870;16.058;2023-02-12T06:57:05;5.03;;;3.20;;
49514;SDS011;35415;47.870;16.058;2023-02-12T06:59:33;3.92;;;2.70;;
49514;SDS011;35415;47.870;16.058;2023-02-12T07:02:00;3.65;;;2.58;;
49514;SDS011;35415;47.870;16.058;2023-02-12T07:04:27;5.20;;;2.78;;
49514;SDS011;35415;47.870;16.058;2023-02-12T07:06:54;3.78;;;2.70;;
49514;SDS011;35415;47.870;16.058;2023-02-12T07:09:21;5.47;;;2.97;;
49514;SDS011;35415;47.870;16.058;2023-02-12T07:11:48;4.63;;;3.30;;
49514;SDS011;35415;47.870;16.058;2023-02-12T07:14:16;4.72;;;2.83;;
49514;SDS011;35415;47.870;16.058;2023-02-12T07:16:44;3.97;;;2.65;;
49514;SDS011;35415;47.870;16.058;2023-02-12T07:19:12;4.88;;;3.00;;
49514;SDS011;35415;47.870;16.058;2023-02-12T07:21:40;4.93;;;3.13;;
49514;SDS011;35415;47.870;16.058;2023-02-12T07:24:08;4.53;;;2.95;;
49514;SDS011;35415;47.870;16.058;2023-02-12T07:26:37;9.00;;;4.57;;
49514;SDS011;35415;47.870;16.058;2023-02-12T07:29:04;6.82;;;3.92;;
49514;SDS011;35415;47.870;16.058;2023-02-12T07:31:31;6.70;;;3.88;;
49514;SDS011;35415;47.870;16.058;2023-02-12T07:34:00;6.32;;;3.72;;
49514;SDS011;35415;47.870;16.058;2023-02-12T07:36:28;6.68;;;4.40;;
49514;SDS011;35415;47.870;16.058;2023-02-12T07:38:57;7.07;;;3.80;;
49514;SDS011;35415;47.870;16.058;2023-02-12T07:41:26;8.23;;;5.22;;
49514;SDS011;35415;47.870;16.058;2023-02-12T07:43:55;6.70;;;3.90;;
49514;SDS011;35415;47.870;16.058;2023-02-12T07:46:24;5.97;;;4.07;;
49514;SDS011;35415;47.870;16.058;2023-02-12T07:48:54;7.00;;;4.57;;
49514;SDS011;35415;47.870;16.058;2023-02-12T07:51:23;6.80;;;3.88;;
49514;SDS011;35415;47.870;16.058;2023-02-12T07:53:50;7.13;;;3.88;;
49514;SDS011;35415;47.870;16.058;2023-02-12T07:56:18;6.68;;;4.93;;
49514;SDS011;35415;47.870;16.058;2023-02-12T07:58:48;8.23;;;6.28;;
49514;SDS011;35415;47.870;16.058;2023-02-12T08:01:19;8.07;;;4.65;;
49514;SDS011;35415;47.870;16.058;2023-02-12T08:03:48;7.97;;;4.32;;
49514;SDS011;35415;47.870;16.058;2023-02-12T08:06:17;6.75;;;4.20;;
49514;SDS011;35415;47.870;16.058;2023-02-12T08:08:47;6.18;;;3.88;;
49514;SDS011;35415;47.870;16.058;2023-02-12T08:11:16;6.50;;;4.43;;
49514;SDS011;35415;47.870;16.058;2023-02-12T08:13:43;6.47;;;3.92;;
49514;SDS011;35415;47.870;16.058;2023-02-12T08:16:11;10.57;;;4.50;;
49514;SDS011;35415;47.870;16.058;2023-02-12T08:18:39;6.75;;;3.67;;
49514;SDS011;35415;47.870;16.058;2023-02-12T08:21:07;6.18;;;4.03;;
49514;SDS011;35415;47.870;16.058;2023-02-12T08:23:36;6.80;;;4.20;;
49514;SDS011;35415;47.870;16.058;2023-02-12T08:26:07;6.90;;;4.00;;
49514;SDS011;35415;47.870;16.058;2023-02-12T08:28:37;6.72;;;4.63;;
49514;SDS011;35415;47.870;16.058;2023-02-12T08:31:06;7.28;;;4.57;;
49514;SDS011;35415;47.870;16.058;2023-02-12T08:33:35;8.13;;;4.47;;
49514;SDS011;35415;47.870;16.058;2023-02-12T08:36:04;8.55;;;4.50;;
49514;SDS011;35415;47.870;16.058;2023-02-12T08:38:34;10.15;;;4.15;;
49514;SDS011;35415;47.870;16.058;2023-02-12T08:41:02;7.15;;;3.80;;
49514;SDS011;35415;47.870;16.058;2023-02-12T08:43:35;8.55;;;4.35;;
49514;SDS011;35415;47.870;16.058;2023-02-12T08:46:05;10.00;;;4.93;;
49514;SDS011;35415;47.870;16.058;2023-02-12T08:48:33;11.45;;;5.20;;
49514;SDS011;35415;47.870;16.058;2023-02-12T08:51:05;9.60;;;5.20;;
49514;SDS011;35415;47.870;16.058;2023-02-12T08:53:33;7.82;;;4.25;;
49514;SDS011;35415;47.870;16.058;2023-02-12T08:56:01;5.63;;;3.67;;
49514;SDS011;35415;47.870;16.058;2023-02-12T08:58:49;6.53;;;4.38;;
49514;SDS011;35415;47.870;16.058;2023-02-12T09:01:18;6.82;;;4.10;;
49514;SDS011;35415;47.870;16.058;2023-02-12T09:03:47;6.22;;;4.35;;
49514;SDS011;35415;47.870;16.058;2023-02-12T09:06:18;7.20;;;4.07;;
49514;SDS011;35415;47.870;16.058;2023-02-12T09:08:54;7.50;;;4.15;;
49514;SDS011;35415;47.870;16.058;2023-02-12T09:11:29;8.70;;;4.78;;
49514;SDS011;35415;47.870;16.058;2023-02-12T09:14:01;10.27;;;4.70;;
49514;SDS011;35415;47.870;16.058;2023-02-12T09:16:32;6.10;;;3.78;;
49514;SDS011;35415;47.870;16.058;2023-02-12T09:19:04;7.68;;;4.10;;
49514;SDS011;35415;47.870;16.058;2023-02-12T09:21:41;7.93;;;4.63;;
49514;SDS011;35415;47.870;16.058;2023-02-12T09:24:11;7.07;;;4.28;;
49514;SDS011;35415;47.870;16.058;2023-02-12T09:26:41;7.75;;;4.20;;
49514;SDS011;35415;47.870;16.058;2023-02-12T09:29:10;8.13;;;4.13;;
49514;SDS011;35415;47.870;16.058;2023-02-12T09:31:37;6.95;;;4.25;;
49514;SDS011;35415;47.870;16.058;2023-02-12T09:34:05;5.90;;;3.67;;
49514;SDS011;35415;47.870;16.058;2023-02-12T09:36:33;7.82;;;4.40;;
49514;SDS011;35415;47.870;16.058;2023-02-12T09:39:01;7.75;;;4.70;;
49514;SDS011;35415;47.870;16.058;2023-02-12T09:41:44;6.75;;;3.50;;
49514;SDS011;35415;47.870;16.058;2023-02-12T09:44:26;8.45;;;4.15;;
49514;SDS011;35415;47.870;16.058;2023-02-12T09:47:01;6.70;;;3.83;;
49514;SDS011;35415;47.870;16.058;2023-02-12T09:49:39;7.30;;;3.75;;
49514;SDS011;35415;47.870;16.058;2023-02-12T09:52:18;8.82;;;4.32;;
49514;SDS011;35415;47.870;16.058;2023-02-12T09:54:50;6.03;;;3.47;;
49514;SDS011;35415;47.870;16.058;2023-02-12T09:57:20;7.78;;;4.00;;
49514;SDS011;35415;47.870;16.058;2023-02-12T09:59:55;5.07;;;2.95;;
49514;SDS011;35415;47.870;16.058;2023-02-12T10:02:25;7.10;;;3.72;;
49514;SDS011;35415;47.870;16.058;2023-02-12T10:04:52;6.10;;;3.35;;
49514;SDS011;35415;47.870;16.058;2023-02-12T10:07:24;6.35;;;3.28;;
49514;SDS011;35415;47.870;16.058;2023-02-12T10:10:12;5.50;;;4.13;;
49514;SDS011;35415;47.870;16.058;2023-02-12T10:12:53;6.00;;;3.08;;
49514;SDS011;35415;47.870;16.058;2023-02-12T10:15:29;6.17;;;3.80;;
49514;SDS011;35415;47.870;16.058;2023-02-12T10:18:07;5.07;;;3.10;;
49514;SDS011;35415;47.870;16.058;2023-02-12T10:20:54;6.55;;;4.03;;
49514;SDS011;35415;47.870;16.058;2023-02-12T10:23:35;5.57;;;3.05;;
49514;SDS011;35415;47.870;16.058;2023-02-12T10:26:21;6.13;;;3.90;;
49514;SDS011;35415;47.870;16.058;2023-02-12T10:28:52;6.32;;;4.05;;
49514;SDS011;35415;47.870;16.058;2023-02-12T10:31:26;6.82;;;3.70;;
49514;SDS011;35415;47.870;16.058;2023-02-12T10:33:57;4.28;;;3.08;;
49514;SDS011;35415;47.870;16.058;2023-02-12T10:36:36;9.63;;;3.33;;
49514;SDS011;35415;47.870;16.058;2023-02-12T10:39:11;5.97;;;3.08;;
49514;SDS011;35415;47.870;16.058;2023-02-12T10:41:44;4.90;;;3.25;;
49514;SDS011;35415;47.870;16.058;2023-02-12T10:44:15;7.63;;;3.55;;
49514;SDS011;35415;47.870;16.058;2023-02-12T10:46:43;8.02;;;3.45;;
49514;SDS011;35415;47.870;16.058;2023-02-12T10:49:12;4.28;;;3.17;;
49514;SDS011;35415;47.870;16.058;2023-02-12T10:51:47;6.45;;;3.25;;
49514;SDS011;35415;47.870;16.058;2023-02-12T10:54:32;4.70;;;2.88;;
49514;SDS011;35415;47.870;16.058;2023-02-12T10:57:09;5.68;;;3.15;;
49514;SDS011;35415;47.870;16.058;2023-02-12T10:59:40;5.30;;;3.03;;
49514;SDS011;35415;47.870;16.058;2023-02-12T11:02:20;6.22;;;3.35;;
49514;SDS011;35415;47.870;16.058;2023-02-12T11:04:51;6.72;;;3.05;;
49514;SDS011;35415;47.870;16.058;2023-02-12T11:07:20;12.35;;;5.70;;
49514;SDS011;35415;47.870;16.058;2023-02-12T11:09:49;7.32;;;3.63;;
49514;SDS011;35415;47.870;16.058;2023-02-12T11:12:19;5.25;;;3.05;;
49514;SDS011;35415;47.870;16.058;2023-02-12T11:14:52;6.05;;;3.28;;
49514;SDS011;35415;47.870;16.058;2023-02-12T11:17:27;7.10;;;3.15;;
49514;SDS011;35415;47.870;16.058;2023-02-12T11:20:04;5.93;;;3.03;;
49514;SDS011;35415;47.870;16.058;2023-02-12T11:22:49;7.82;;;3.80;;
49514;SDS011;35415;47.870;16.058;2023-02-12T11:25:22;8.20;;;3.40;;
49514;SDS011;35415;47.870;16.058;2023-02-12T11:28:02;16.65;;;3.70;;
49514;SDS011;35415;47.870;16.058;2023-02-12T11:30:32;5.25;;;2.95;;
49514;SDS011;35415;47.870;16.058;2023-02-12T11:33:18;6.45;;;3.10;;
49514;SDS011;35415;47.870;16.058;2023-02-12T11:35:50;5.10;;;2.70;;
49514;SDS011;35415;47.870;16.058;2023-02-12T11:38:22;6.45;;;2.63;;
49514;SDS011;35415;47.870;16.058;2023-02-12T11:40:54;5.57;;;2.97;;
49514;SDS011;35415;47.870;16.058;2023-02-12T11:43:25;4.50;;;2.55;;
49514;SDS011;35415;47.870;16.058;2023-02-12T11:45:55;5.45;;;2.90;;
49514;SDS011;35415;47.870;16.058;2023-02-12T11:48:28;4.05;;;2.60;;
49514;SDS011;35415;47.870;16.058;2023-02-12T11:50:58;4.50;;;2.47;;
49514;SDS011;35415;47.870;16.058;2023-02-12T11:53:29;4.88;;;2.28;;
49514;SDS011;35415;47.870;16.058;2023-02-12T11:56:03;4.95;;;2.30;;
49514;SDS011;35415;47.870;16.058;2023-02-12T11:58:32;3.40;;;2.40;;
49514;SDS011;35415;47.870;16.058;2023-02-12T12:01:04;4.00;;;2.20;;
49514;SDS011;35415;47.870;16.058;2023-02-12T12:03:40;2.92;;;1.98;;
49514;SDS011;35415;47.870;16.058;2023-02-12T12:06:18;5.03;;;2.80;;
49514;SDS011;35415;47.870;16.058;2023-02-12T12:08:55;5.10;;;2.00;;
49514;SDS011;35415;47.870;16.058;2023-02-12T12:11:31;4.07;;;2.30;;
49514;SDS011;35415;47.870;16.058;2023-02-12T12:14:07;4.15;;;2.10;;
49514;SDS011;35415;47.870;16.058;2023-02-12T12:16:43;4.28;;;2.47;;
49514;SDS011;35415;47.870;16.058;2023-02-12T12:19:39;7.35;;;2.30;;
49514;SDS011;35415;47.870;16.058;2023-02-12T12:22:25;3.88;;;2.15;;
49514;SDS011;35415;47.870;16.058;2023-02-12T12:25:09;5.05;;;2.58;;
49514;SDS011;35415;47.870;16.058;2023-02-12T12:27:53;3.97;;;2.47;;
49514;SDS011;35415;47.870;16.058;2023-02-12T12:30:38;4.88;;;2.35;;
49514;SDS011;35415;47.870;16.058;2023-02-12T12:33:14;3.83;;;2.50;;
49514;SDS011;35415;47.870;16.058;2023-02-12T12:35:50;3.72;;;2.05;;
49514;SDS011;35415;47.870;16.058;2023-02-12T12:38:29;4.38;;;2.00;;
49514;SDS011;35415;47.870;16.058;2023-02-12T12:41:07;2.50;;;1.60;;
49514;SDS011;35415;47.870;16.058;2023-02-12T12:43:49;6.50;;;2.15;;
49514;SDS011;35415;47.870;16.058;2023-02-12T12:46:33;3.83;;;2.20;;
49514;SDS011;35415;47.870;16.058;2023-02-12T12:52:14;3.80;;;2.20;;
49514;SDS011;35415;47.870;16.058;2023-02-12T12:54:59;3.08;;;2.00;;
49514;SDS011;35415;47.870;16.058;2023-02-12T12:57:45;4.57;;;2.50;;
49514;SDS011;35415;47.870;16.058;2023-02-12T13:00:23;4.25;;;2.55;;
49514;SDS011;35415;47.870;16.058;2023-02-12T13:09:14;4.93;;;2.20;;
49514;SDS011;35415;47.870;16.058;2023-02-12T13:12:05;5.97;;;2.30;;
49514;SDS011;35415;47.870;16.058;2023-02-12T13:14:51;3.88;;;2.17;;
49514;SDS011;35415;47.870;16.058;2023-02-12T13:17:24;5.22;;;2.05;;
49514;SDS011;35415;47.870;16.058;2023-02-12T13:20:00;4.93;;;1.80;;
49514;SDS011;35415;47.870;16.058;2023-02-12T13:22:39;2.65;;;1.85;;
49514;SDS011;35415;47.870;16.058;2023-02-12T13:25:17;3.95;;;2.10;;
49514;SDS011;35415;47.870;16.058;2023-02-12T13:27:49;2.42;;;1.73;;
49514;SDS011;35415;47.870;16.058;2023-02-12T13:30:19;5.10;;;2.03;;
49514;SDS011;35415;47.870;16.058;2023-02-12T13:32:50;3.78;;;1.73;;
49514;SDS011;35415;47.870;16.058;2023-02-12T13:35:26;3.90;;;2.03;;
49514;SDS011;35415;47.870;16.058;2023-02-12T13:37:56;3.35;;;1.75;;
49514;SDS011;35415;47.870;16.058;2023-02-12T13:40:27;1.90;;;1.38;;
49514;SDS011;35415;47.870;16.058;2023-02-12T13:42:57;3.08;;;1.70;;
49514;SDS011;35415;47.870;16.058;2023-02-12T13:45:39;3.08;;;1.60;;
49514;SDS011;35415;47.870;16.058;2023-02-12T13:48:18;2.70;;;1.38;;
49514;SDS011;35415;47.870;16.058;2023-02-12T13:51:00;2.90;;;1.80;;
49514;SDS011;35415;47.870;16.058;2023-02-12T13:53:35;1.95;;;1.25;;
49514;SDS011;35415;47.870;16.058;2023-02-12T13:56:21;2.00;;;1.47;;
49514;SDS011;35415;47.870;16.058;2023-02-12T14:01:36;3.53;;;1.30;;
49514;SDS011;35415;47.870;16.058;2023-02-12T14:04:21;2.83;;;1.17;;
49514;SDS011;35415;47.870;16.058;2023-02-12T14:06:56;2.60;;;1.45;;
49514;SDS011;35415;47.870;16.058;2023-02-12T14:09:28;2.70;;;1.27;;
49514;SDS011;35415;47.870;16.058;2023-02-12T14:11:59;3.17;;;1.58;;
49514;SDS011;35415;47.870;16.058;2023-02-12T14:14:31;2.13;;;1.15;;
49514;SDS011;35415;47.870;16.058;2023-02-12T14:20:11;4.20;;;1.40;;
49514;SDS011;35415;47.870;16.058;2023-02-12T14:28:46;2.63;;;1.60;;
49514;SDS011;35415;47.870;16.058;2023-02-12T14:31:31;1.40;;;0.90;;
49514;SDS011;35415;47.870;16.058;2023-02-12T14:37:10;1.40;;;1.00;;
49514;SDS011;35415;47.870;16.058;2023-02-12T14:39:42;1.88;;;1.40;;
49514;SDS011;35415;47.870;16.058;2023-02-12T14:47:57;2.78;;;1.20;;
49514;SDS011;35415;47.870;16.058;2023-02-12T14:50:28;1.85;;;1.23;;
49514;SDS011;35415;47.870;16.058;2023-02-12T14:53:07;3.45;;;1.30;;
49514;SDS011;35415;47.870;16.058;2023-02-12T14:55:47;1.40;;;1.20;;
49514;SDS011;35415;47.870;16.058;2023-02-12T14:58:16;1.70;;;1.50;;
49514;SDS011;35415;47.870;16.058;2023-02-12T15:00:48;1.10;;;1.00;;
49514;SDS011;35415;47.870;16.058;2023-02-12T15:03:21;1.95;;;1.38;;
49514;SDS011;35415;47.870;16.058;2023-02-12T15:08:25;2.85;;;1.15;;
49514;SDS011;35415;47.870;16.058;2023-02-12T15:10:58;2.78;;;1.20;;
49514;SDS011;35415;47.870;16.058;2023-02-12T15:13:40;2.45;;;1.20;;
49514;SDS011;35415;47.870;16.058;2023-02-12T15:16:16;2.13;;;1.00;;
49514;SDS011;35415;47.870;16.058;2023-02-12T15:18:51;1.10;;;0.80;;
49514;SDS011;35415;47.870;16.058;2023-02-12T15:21:24;1.95;;;0.90;;
49514;SDS011;35415;47.870;16.058;2023-02-12T15:24:03;1.77;;;1.17;;
49514;SDS011;35415;47.870;16.058;2023-02-12T15:26:33;1.70;;;1.30;;
49514;SDS011;35415;47.870;16.058;2023-02-12T15:29:02;1.42;;;1.10;;
49514;SDS011;35415;47.870;16.058;2023-02-12T15:31:31;2.78;;;1.10;;
49514;SDS011;35415;47.870;16.058;2023-02-12T15:34:00;1.70;;;1.33;;
49514;SDS011;35415;47.870;16.058;2023-02-12T15:36:30;1.10;;;1.00;;
49514;SDS011;35415;47.870;16.058;2023-02-12T15:39:00;1.25;;;1.10;;
49514;SDS011;35415;47.870;16.058;2023-02-12T15:41:33;1.38;;;1.17;;
49514;SDS011;35415;47.870;16.058;2023-02-12T15:44:17;1.83;;;1.00;;
49514;SDS011;35415;47.870;16.058;2023-02-12T15:46:54;1.27;;;1.00;;
49514;SDS011;35415;47.870;16.058;2023-02-12T15:49:25;2.10;;;1.20;;
49514;SDS011;35415;47.870;16.058;2023-02-12T15:51:54;2.33;;;1.20;;
49514;SDS011;35415;47.870;16.058;2023-02-12T15:54:23;2.25;;;1.20;;
49514;SDS011;35415;47.870;16.058;2023-02-12T15:56:51;2.03;;;1.45;;
49514;SDS011;35415;47.870;16.058;2023-02-12T15:59:21;2.22;;;1.38;;
49514;SDS011;35415;47.870;16.058;2023-02-12T16:01:55;3.53;;;1.55;;
49514;SDS011;35415;47.870;16.058;2023-02-12T16:04:25;4.22;;;1.50;;
49514;SDS011;35415;47.870;16.058;2023-02-12T16:06:57;2.15;;;1.55;;
49514;SDS011;35415;47.870;16.058;2023-02-12T16:09:27;2.38;;;1.52;;
49514;SDS011;35415;47.870;16.058;2023-02-12T16:11:58;2.13;;;1.30;;
49514;SDS011;35415;47.870;16.058;2023-02-12T16:14:29;5.90;;;2.25;;
49514;SDS011;35415;47.870;16.058;2023-02-12T16:17:20;7.00;;;2.88;;
49514;SDS011;35415;47.870;16.058;2023-02-12T16:19:52;3.67;;;2.17;;
49514;SDS011;35415;47.870;16.058;2023-02-12T16:22:20;2.90;;;1.77;;
49514;SDS011;35415;47.870;16.058;2023-02-12T16:24:52;6.57;;;2.60;;
49514;SDS011;35415;47.870;16.058;2023-02-12T16:27:22;5.63;;;2.88;;
49514;SDS011;35415;47.870;16.058;2023-02-12T16:29:52;4.93;;;2.17;;
49514;SDS011;35415;47.870;16.058;2023-02-12T16:32:27;6.35;;;2.85;;
49514;SDS011;35415;47.870;16.058;2023-02-12T16:34:59;8.35;;;4.22;;